sensor_id;sensor_type;location;lat;lon;timestamp;pressure;altitude;pressure_sealevel;temperature;humidity
17649;BME280;8943;51.110;-4.158;2022-08-20T00:02:13;101399.41;;;21.82;51.15
17649;BME280;8943;51.110;-4.158;2022-08-20T00:04:42;101402.78;;;21.76;51.36
17649;BME280;8943;51.110;-4.158;2022-08-20T00:07:13;101400.25;;;21.75;51.65
17649;BME280;8943;51.110;-4.158;2022-08-20T00:09:43;101395.31;;;21.70;51.30
17649;BME280;8943;51.110;-4.158;2022-08-20T00:12:12;101393.81;;;21.68;51.52
17649;BME280;8943;51.110;-4.158;2022-08-20T00:14:43;101393.28;;;21.64;51.76
17649;BME280;8943;51.110;-4.158;2022-08-20T00:17:11;101397.00;;;21.55;51.67
17649;BME280;8943;51.110;-4.158;2022-08-20T00:19:39;101387.84;;;21.56;51.58
17649;BME280;8943;51.110;-4.158;2022-08-20T00:22:07;101390.91;;;21.53;51.59
17649;BME280;8943;51.110;-4.158;2022-08-20T00:24:37;101388.72;;;21.48;51.82
17649;BME280;8943;51.110;-4.158;2022-08-20T00:27:05;101386.16;;;21.55;51.90
17649;BME280;8943;51.110;-4.158;2022-08-20T00:29:33;101394.13;;;21.56;51.82
17649;BME280;8943;51.110;-4.158;2022-08-20T00:32:01;101386.50;;;21.60;51.75
17649;BME280;8943;51.110;-4.158;2022-08-20T00:34:29;101375.84;;;21.58;52.03
17649;BME280;8943;51.110;-4.158;2022-08-20T00:36:58;101379.22;;;21.60;51.74
17649;BME280;8943;51.110;-4.158;2022-08-20T00:39:26;101374.66;;;21.69;52.05
17649;BME280;8943;51.110;-4.158;2022-08-20T00:41:56;101372.13;;;21.68;51.95
17649;BME280;8943;51.110;-4.158;2022-08-20T00:44:24;101370.25;;;21.68;51.75
17649;BME280;8943;51.110;-4.158;2022-08-20T00:46:52;101366.50;;;21.61;52.11
17649;BME280;8943;51.110;-4.158;2022-08-20T00:49:23;101373.63;;;21.62;52.02
17649;BME280;8943;51.110;-4.158;2022-08-20T00:51:56;101372.28;;;21.58;51.89
17649;BME280;8943;51.110;-4.158;2022-08-20T00:54:28;101366.00;;;21.57;52.25
17649;BME280;8943;51.110;-4.158;2022-08-20T00:57:01;101375.50;;;21.53;52.41
17649;BME280;8943;51.110;-4.158;2022-08-20T00:59:32;101369.91;;;21.55;52.36
17649;BME280;8943;51.110;-4.158;2022-08-20T01:02:03;101369.72;;;21.56;52.23
17649;BME280;8943;51.110;-4.158;2022-08-20T01:04:34;101364.97;;;21.50;52.30
17649;BME280;8943;51.110;-4.158;2022-08-20T01:07:04;101365.50;;;21.54;52.30
17649;BME280;8943;51.110;-4.158;2022-08-20T01:09:33;101363.94;;;21.51;52.38
17649;BME280;8943;51.110;-4.158;2022-08-20T01:12:28;101369.56;;;21.50;52.01
17649;BME280;8943;51.110;-4.158;2022-08-20T01:14:58;101368.19;;;21.46;52.63
17649;BME280;8943;51.110;-4.158;2022-08-20T01:17:30;101368.38;;;21.52;52.24
17649;BME280;8943;51.110;-4.158;2022-08-20T01:20:07;101376.66;;;21.51;52.41
17649;BME280;8943;51.110;-4.158;2022-08-20T01:22:41;101373.31;;;21.57;52.46
17649;BME280;8943;51.110;-4.158;2022-08-20T01:25:39;101375.34;;;21.63;52.42
17649;BME280;8943;51.110;-4.158;2022-08-20T01:28:09;101369.53;;;21.66;52.60
17649;BME280;8943;51.110;-4.158;2022-08-20T01:30:38;101365.47;;;21.70;52.43
17649;BME280;8943;51.110;-4.158;2022-08-20T01:33:07;101366.50;;;21.69;52.30
17649;BME280;8943;51.110;-4.158;2022-08-20T01:35:36;101362.94;;;21.69;52.41
17649;BME280;8943;51.110;-4.158;2022-08-20T01:38:05;101363.47;;;21.72;52.15
17649;BME280;8943;51.110;-4.158;2022-08-20T01:43:44;101367.50;;;21.76;52.53
17649;BME280;8943;51.110;-4.158;2022-08-20T01:46:15;101369.91;;;21.79;52.50
17649;BME280;8943;51.110;-4.158;2022-08-20T01:48:45;101364.13;;;21.82;52.37
17649;BME280;8943;51.110;-4.158;2022-08-20T01:51:15;101368.88;;;21.89;52.35
17649;BME280;8943;51.110;-4.158;2022-08-20T01:53:47;101371.06;;;21.93;52.27
17649;BME280;8943;51.110;-4.158;2022-08-20T01:56:19;101368.53;;;21.92;52.35
17649;BME280;8943;51.110;-4.158;2022-08-20T01:58:51;101364.44;;;21.96;51.96
17649;BME280;8943;51.110;-4.158;2022-08-20T02:01:26;101366.16;;;21.97;51.97
17649;BME280;8943;51.110;-4.158;2022-08-20T02:03:55;101355.97;;;21.99;52.03
17649;BME280;8943;51.110;-4.158;2022-08-20T02:06:25;101352.75;;;21.95;52.21
17649;BME280;8943;51.110;-4.158;2022-08-20T02:08:57;101352.75;;;21.95;52.24
17649;BME280;8943;51.110;-4.158;2022-08-20T02:11:27;101349.19;;;21.95;51.71
17649;BME280;8943;51.110;-4.158;2022-08-20T02:13:57;101353.25;;;21.91;51.49
17649;BME280;8943;51.110;-4.158;2022-08-20T02:16:28;101358.34;;;21.94;51.78
17649;BME280;8943;51.110;-4.158;2022-08-20T02:18:59;101351.94;;;21.87;51.83
17649;BME280;8943;51.110;-4.158;2022-08-20T02:21:30;101357.19;;;21.88;51.54
17649;BME280;8943;51.110;-4.158;2022-08-20T02:23:59;101360.06;;;21.87;51.80
17649;BME280;8943;51.110;-4.158;2022-08-20T02:26:28;101362.09;;;21.84;51.97
17649;BME280;8943;51.110;-4.158;2022-08-20T02:28:57;101354.97;;;21.83;51.93
17649;BME280;8943;51.110;-4.158;2022-08-20T02:31:26;101356.84;;;21.83;51.84
17649;BME280;8943;51.110;-4.158;2022-08-20T02:34:00;101343.78;;;21.87;51.95
17649;BME280;8943;51.110;-4.158;2022-08-20T02:36:48;101348.34;;;21.86;52.20
17649;BME280;8943;51.110;-4.158;2022-08-20T02:39:16;101349.88;;;21.89;51.97
17649;BME280;8943;51.110;-4.158;2022-08-20T02:41:44;101346.16;;;21.90;52.37
17649;BME280;8943;51.110;-4.158;2022-08-20T02:44:14;101345.63;;;21.94;51.86
17649;BME280;8943;51.110;-4.158;2022-08-20T02:46:44;101343.44;;;21.90;52.00
17649;BME280;8943;51.110;-4.158;2022-08-20T02:49:12;101342.78;;;21.88;51.89
17649;BME280;8943;51.110;-4.158;2022-08-20T02:51:40;101338.53;;;21.77;52.45
17649;BME280;8943;51.110;-4.158;2022-08-20T02:54:08;101344.63;;;21.71;52.44
17649;BME280;8943;51.110;-4.158;2022-08-20T02:56:37;101341.75;;;21.64;52.53
17649;BME280;8943;51.110;-4.158;2022-08-20T02:59:05;101343.13;;;21.60;52.75
17649;BME280;8943;51.110;-4.158;2022-08-20T03:01:37;101340.59;;;21.58;52.89
17649;BME280;8943;51.110;-4.158;2022-08-20T03:04:05;101338.56;;;21.52;52.93
17649;BME280;8943;51.110;-4.158;2022-08-20T03:06:33;101337.69;;;21.52;52.95
17649;BME280;8943;51.110;-4.158;2022-08-20T03:09:02;101338.56;;;21.52;53.15
17649;BME280;8943;51.110;-4.158;2022-08-20T03:11:32;101334.47;;;21.48;53.22
17649;BME280;8943;51.110;-4.158;2022-08-20T03:14:01;101324.66;;;21.47;52.94
17649;BME280;8943;51.110;-4.158;2022-08-20T03:16:29;101320.06;;;21.56;53.52
17649;BME280;8943;51.110;-4.158;2022-08-20T03:18:58;101317.72;;;21.53;53.48
17649;BME280;8943;51.110;-4.158;2022-08-20T03:21:26;101330.56;;;21.59;53.73
17649;BME280;8943;51.110;-4.158;2022-08-20T03:23:54;101321.78;;;21.57;53.22
17649;BME280;8943;51.110;-4.158;2022-08-20T03:26:23;101310.22;;;21.55;53.50
17649;BME280;8943;51.110;-4.158;2022-08-20T03:28:51;101311.25;;;21.54;53.18
17649;BME280;8943;51.110;-4.158;2022-08-20T03:31:19;101309.72;;;21.51;53.63
17649;BME280;8943;51.110;-4.158;2022-08-20T03:33:47;101313.97;;;21.54;53.64
17649;BME280;8943;51.110;-4.158;2022-08-20T03:36:21;101308.03;;;21.58;53.59
17649;BME280;8943;51.110;-4.158;2022-08-20T03:38:54;101299.53;;;21.62;53.48
17649;BME280;8943;51.110;-4.158;2022-08-20T03:41:23;101305.16;;;21.60;53.79
17649;BME280;8943;51.110;-4.158;2022-08-20T03:43:51;101310.56;;;21.60;53.74
17649;BME280;8943;51.110;-4.158;2022-08-20T03:46:20;101310.56;;;21.60;53.71
17649;BME280;8943;51.110;-4.158;2022-08-20T03:48:49;101307.53;;;21.55;53.94
17649;BME280;8943;51.110;-4.158;2022-08-20T03:51:28;101306.84;;;21.53;53.97
17649;BME280;8943;51.110;-4.158;2022-08-20T03:53:56;101307.84;;;21.52;54.01
17649;BME280;8943;51.110;-4.158;2022-08-20T03:56:25;101306.66;;;21.46;54.30
17649;BME280;8943;51.110;-4.158;2022-08-20T03:58:53;101302.78;;;21.49;54.29
17649;BME280;8943;51.110;-4.158;2022-08-20T04:01:22;101301.59;;;21.51;54.40
17649;BME280;8943;51.110;-4.158;2022-08-20T04:04:10;101298.72;;;21.53;54.52
17649;BME280;8943;51.110;-4.158;2022-08-20T04:06:40;101301.78;;;21.58;54.33
17649;BME280;8943;51.110;-4.158;2022-08-20T04:09:08;101296.81;;;21.62;54.35
17649;BME280;8943;51.110;-4.158;2022-08-20T04:11:38;101297.69;;;21.62;54.38
17649;BME280;8943;51.110;-4.158;2022-08-20T04:14:06;101303.13;;;21.62;54.31
17649;BME280;8943;51.110;-4.158;2022-08-20T04:16:37;101303.28;;;21.60;54.48
17649;BME280;8943;51.110;-4.158;2022-08-20T04:19:06;101309.06;;;21.57;54.63
17649;BME280;8943;51.110;-4.158;2022-08-20T04:21:35;101295.31;;;21.59;54.44
17649;BME280;8943;51.110;-4.158;2022-08-20T04:24:05;101302.94;;;21.55;54.52
17649;BME280;8943;51.110;-4.158;2022-08-20T04:26:48;101294.97;;;21.54;54.33
17649;BME280;8943;51.110;-4.158;2022-08-20T04:29:16;101307.19;;;21.50;54.13
17649;BME280;8943;51.110;-4.158;2022-08-20T04:31:45;101304.47;;;21.42;54.25
17649;BME280;8943;51.110;-4.158;2022-08-20T04:34:13;101309.22;;;21.40;54.66
17649;BME280;8943;51.110;-4.158;2022-08-20T04:36:42;101308.56;;;21.38;54.74
17649;BME280;8943;51.110;-4.158;2022-08-20T04:39:15;101316.69;;;21.38;54.56
17649;BME280;8943;51.110;-4.158;2022-08-20T04:41:43;101313.28;;;21.44;54.56
17649;BME280;8943;51.110;-4.158;2022-08-20T04:44:11;101316.00;;;21.44;54.73
17649;BME280;8943;51.110;-4.158;2022-08-20T04:49:07;101322.09;;;21.46;55.02
17649;BME280;8943;51.110;-4.158;2022-08-20T04:51:35;101321.75;;;21.49;54.92
17649;BME280;8943;51.110;-4.158;2022-08-20T04:54:04;101324.47;;;21.49;55.06
17649;BME280;8943;51.110;-4.158;2022-08-20T04:56:34;101325.84;;;21.53;55.23
17649;BME280;8943;51.110;-4.158;2022-08-20T04:59:05;101316.69;;;21.54;55.01
17649;BME280;8943;51.110;-4.158;2022-08-20T05:01:34;101323.28;;;21.51;55.03
17649;BME280;8943;51.110;-4.158;2022-08-20T05:04:02;101323.78;;;21.55;54.89
17649;BME280;8943;51.110;-4.158;2022-08-20T05:06:31;101335.16;;;21.50;55.17
17649;BME280;8943;51.110;-4.158;2022-08-20T05:08:59;101337.84;;;21.50;54.94
17649;BME280;8943;51.110;-4.158;2022-08-20T05:11:28;101334.13;;;21.51;55.04
17649;BME280;8943;51.110;-4.158;2022-08-20T05:14:04;101340.03;;;21.47;54.86
17649;BME280;8943;51.110;-4.158;2022-08-20T05:16:36;101335.31;;;21.41;54.96
17649;BME280;8943;51.110;-4.158;2022-08-20T05:19:06;101334.97;;;21.36;55.07
17649;BME280;8943;51.110;-4.158;2022-08-20T05:21:34;101337.50;;;21.37;55.24
17649;BME280;8943;51.110;-4.158;2022-08-20T05:24:03;101339.38;;;21.37;54.95
17649;BME280;8943;51.110;-4.158;2022-08-20T05:26:32;101339.53;;;21.35;55.11
17649;BME280;8943;51.110;-4.158;2022-08-20T05:29:00;101343.28;;;21.34;55.06
17649;BME280;8943;51.110;-4.158;2022-08-20T05:31:32;101353.94;;;21.36;54.87
17649;BME280;8943;51.110;-4.158;2022-08-20T05:34:01;101353.94;;;21.36;55.18
17649;BME280;8943;51.110;-4.158;2022-08-20T05:36:35;101356.34;;;21.39;55.25
17649;BME280;8943;51.110;-4.158;2022-08-20T05:39:05;101357.00;;;21.41;55.27
17649;BME280;8943;51.110;-4.158;2022-08-20T05:41:34;101371.59;;;21.48;55.33
17649;BME280;8943;51.110;-4.158;2022-08-20T05:44:03;101365.81;;;21.51;55.50
17649;BME280;8943;51.110;-4.158;2022-08-20T05:46:38;101364.47;;;21.55;55.60
17649;BME280;8943;51.110;-4.158;2022-08-20T05:49:07;101357.69;;;21.59;55.18
17649;BME280;8943;51.110;-4.158;2022-08-20T05:51:37;101367.19;;;21.63;55.38
17649;BME280;8943;51.110;-4.158;2022-08-20T05:54:05;101359.06;;;21.63;55.29
17649;BME280;8943;51.110;-4.158;2022-08-20T05:56:34;101378.53;;;21.67;55.08
17649;BME280;8943;51.110;-4.158;2022-08-20T05:59:04;101380.06;;;21.61;55.12
17649;BME280;8943;51.110;-4.158;2022-08-20T06:01:35;101377.69;;;21.58;54.99
17649;BME280;8943;51.110;-4.158;2022-08-20T06:04:06;101372.94;;;21.60;55.01
17649;BME280;8943;51.110;-4.158;2022-08-20T06:06:54;101377.00;;;21.56;54.96
17649;BME280;8943;51.110;-4.158;2022-08-20T06:09:25;101383.63;;;21.62;55.27
17649;BME280;8943;51.110;-4.158;2022-08-20T06:11:57;101380.41;;;21.58;55.30
17649;BME280;8943;51.110;-4.158;2022-08-20T06:14:26;101376.34;;;21.62;55.56
17649;BME280;8943;51.110;-4.158;2022-08-20T06:16:54;101378.72;;;21.65;55.23
17649;BME280;8943;51.110;-4.158;2022-08-20T06:19:26;101382.44;;;21.72;55.23
17649;BME280;8943;51.110;-4.158;2022-08-20T06:21:58;101382.28;;;21.74;55.53
17649;BME280;8943;51.110;-4.158;2022-08-20T06:24:26;101386.16;;;21.79;55.18
17649;BME280;8943;51.110;-4.158;2022-08-20T06:26:55;101394.13;;;21.81;55.08
17649;BME280;8943;51.110;-4.158;2022-08-20T06:29:24;101396.34;;;21.85;55.17
17649;BME280;8943;51.110;-4.158;2022-08-20T06:31:52;101397.69;;;21.90;55.04
17649;BME280;8943;51.110;-4.158;2022-08-20T06:34:21;101397.00;;;21.96;55.14
17649;BME280;8943;51.110;-4.158;2022-08-20T06:36:51;101398.22;;;22.01;55.24
17649;BME280;8943;51.110;-4.158;2022-08-20T06:39:19;101398.38;;;22.00;55.22
17649;BME280;8943;51.110;-4.158;2022-08-20T06:41:48;101403.13;;;22.06;55.06
17649;BME280;8943;51.110;-4.158;2022-08-20T06:44:18;101395.84;;;22.06;54.88
17649;BME280;8943;51.110;-4.158;2022-08-20T06:46:46;101390.78;;;22.12;54.80
17649;BME280;8943;51.110;-4.158;2022-08-20T06:49:14;101393.59;;;22.10;55.14
17649;BME280;8943;51.110;-4.158;2022-08-20T06:51:42;101396.00;;;22.13;54.91
17649;BME280;8943;51.110;-4.158;2022-08-20T06:54:16;101398.06;;;22.11;54.79
17649;BME280;8943;51.110;-4.158;2022-08-20T06:56:45;101393.59;;;22.10;54.95
17649;BME280;8943;51.110;-4.158;2022-08-20T06:59:13;101403.31;;;22.13;54.49
17649;BME280;8943;51.110;-4.158;2022-08-20T07:01:41;101394.13;;;22.05;55.02
17649;BME280;8943;51.110;-4.158;2022-08-20T07:04:09;101393.97;;;22.07;54.93
17649;BME280;8943;51.110;-4.158;2022-08-20T07:06:37;101397.72;;;22.06;54.86
17649;BME280;8943;51.110;-4.158;2022-08-20T07:09:05;101398.69;;;22.05;55.23
17649;BME280;8943;51.110;-4.158;2022-08-20T07:11:35;101397.34;;;22.01;55.30
17649;BME280;8943;51.110;-4.158;2022-08-20T07:14:03;101396.69;;;22.07;55.38
17649;BME280;8943;51.110;-4.158;2022-08-20T07:16:31;101397.34;;;22.09;55.40
17649;BME280;8943;51.110;-4.158;2022-08-20T07:19:00;101382.44;;;22.13;55.37
17649;BME280;8943;51.110;-4.158;2022-08-20T07:21:28;101399.25;;;22.17;55.25
17649;BME280;8943;51.110;-4.158;2022-08-20T07:23:56;101401.13;;;22.16;55.48
17649;BME280;8943;51.110;-4.158;2022-08-20T07:26:26;101395.31;;;22.19;55.33
17649;BME280;8943;51.110;-4.158;2022-08-20T07:28:55;101394.47;;;22.19;55.42
17649;BME280;8943;51.110;-4.158;2022-08-20T07:31:23;101388.34;;;22.25;55.66
17649;BME280;8943;51.110;-4.158;2022-08-20T07:34:09;101402.09;;;22.31;55.50
17649;BME280;8943;51.110;-4.158;2022-08-20T07:36:37;101393.97;;;22.31;55.62
17649;BME280;8943;51.110;-4.158;2022-08-20T07:39:05;101393.06;;;22.39;55.55
17649;BME280;8943;51.110;-4.158;2022-08-20T07:41:35;101394.75;;;22.48;55.45
17649;BME280;8943;51.110;-4.158;2022-08-20T07:44:04;101398.63;;;22.54;55.52
17649;BME280;8943;51.110;-4.158;2022-08-20T07:46:32;101391.81;;;22.58;55.51
17649;BME280;8943;51.110;-4.158;2022-08-20T07:49:01;101393.31;;;22.69;55.51
17649;BME280;8943;51.110;-4.158;2022-08-20T07:51:30;101392.13;;;22.71;55.73
17649;BME280;8943;51.110;-4.158;2022-08-20T07:53:59;101395.16;;;22.76;55.36
17649;BME280;8943;51.110;-4.158;2022-08-20T07:56:27;101393.47;;;22.75;55.35
17649;BME280;8943;51.110;-4.158;2022-08-20T07:58:55;101396.84;;;22.77;55.11
17649;BME280;8943;51.110;-4.158;2022-08-20T08:01:29;101398.91;;;22.75;55.12
17649;BME280;8943;51.110;-4.158;2022-08-20T08:03:58;101402.81;;;22.73;55.39
17649;BME280;8943;51.110;-4.158;2022-08-20T08:06:27;101408.09;;;22.74;55.29
17649;BME280;8943;51.110;-4.158;2022-08-20T08:09:01;101402.66;;;22.74;55.52
17649;BME280;8943;51.110;-4.158;2022-08-20T08:11:32;101411.78;;;22.81;55.53
17649;BME280;8943;51.110;-4.158;2022-08-20T08:14:03;101402.66;;;22.74;55.63
17649;BME280;8943;51.110;-4.158;2022-08-20T08:16:35;101411.78;;;22.81;55.61
17649;BME280;8943;51.110;-4.158;2022-08-20T08:19:05;101396.50;;;22.80;55.81
17649;BME280;8943;51.110;-4.158;2022-08-20T08:21:34;101401.41;;;22.85;55.46
17649;BME280;8943;51.110;-4.158;2022-08-20T08:24:03;101402.91;;;22.87;55.45
17649;BME280;8943;51.110;-4.158;2022-08-20T08:26:31;101396.97;;;23.00;55.15
17649;BME280;8943;51.110;-4.158;2022-08-20T08:28:59;101397.81;;;23.01;55.21
17649;BME280;8943;51.110;-4.158;2022-08-20T08:31:28;101400.19;;;23.04;55.18
17649;BME280;8943;51.110;-4.158;2022-08-20T08:33:57;101401.31;;;23.09;54.83
17649;BME280;8943;51.110;-4.158;2022-08-20T08:36:26;101405.44;;;23.05;54.81
17649;BME280;8943;51.110;-4.158;2022-08-20T08:38:54;101394.38;;;23.07;54.62
17649;BME280;8943;51.110;-4.158;2022-08-20T08:41:28;101399.81;;;23.07;54.69
17649;BME280;8943;51.110;-4.158;2022-08-20T08:44:04;101401.38;;;23.01;54.63
17649;BME280;8943;51.110;-4.158;2022-08-20T08:46:38;101409.50;;;23.01;54.28
17649;BME280;8943;51.110;-4.158;2022-08-20T08:49:12;101408.69;;;23.01;54.22
17649;BME280;8943;51.110;-4.158;2022-08-20T08:51:44;101405.31;;;22.99;54.01
17649;BME280;8943;51.110;-4.158;2022-08-20T08:54:16;101411.06;;;22.96;54.20
17649;BME280;8943;51.110;-4.158;2022-08-20T08:56:47;101408.19;;;22.97;54.20
17649;BME280;8943;51.110;-4.158;2022-08-20T08:59:17;101411.22;;;23.02;54.35
17649;BME280;8943;51.110;-4.158;2022-08-20T09:01:48;101412.56;;;23.06;54.17
17649;BME280;8943;51.110;-4.158;2022-08-20T09:04:26;101413.16;;;23.17;54.19
17649;BME280;8943;51.110;-4.158;2022-08-20T09:06:56;101407.16;;;23.29;53.96
17649;BME280;8943;51.110;-4.158;2022-08-20T09:09:27;101413.09;;;23.33;53.72
17649;BME280;8943;51.110;-4.158;2022-08-20T09:12:02;101406.44;;;23.35;53.63
17649;BME280;8943;51.110;-4.158;2022-08-20T09:14:31;101416.88;;;23.47;53.42
17649;BME280;8943;51.110;-4.158;2022-08-20T09:16:59;101411.75;;;23.52;52.84
17649;BME280;8943;51.110;-4.158;2022-08-20T09:19:29;101407.00;;;23.54;53.21
17649;BME280;8943;51.110;-4.158;2022-08-20T09:21:57;101409.66;;;23.62;52.86
17649;BME280;8943;51.110;-4.158;2022-08-20T09:24:26;101418.31;;;23.66;52.59
17649;BME280;8943;51.110;-4.158;2022-08-20T09:26:54;101422.19;;;23.71;52.52
17649;BME280;8943;51.110;-4.158;2022-08-20T09:29:22;101420.81;;;23.75;52.44
17649;BME280;8943;51.110;-4.158;2022-08-20T09:32:03;101415.00;;;23.78;52.12
17649;BME280;8943;51.110;-4.158;2022-08-20T09:34:36;101415.19;;;23.77;51.78
17649;BME280;8943;51.110;-4.158;2022-08-20T09:37:04;101419.31;;;23.73;51.64
17649;BME280;8943;51.110;-4.158;2022-08-20T09:39:33;101420.25;;;23.80;51.65
17649;BME280;8943;51.110;-4.158;2022-08-20T09:42:09;101411.53;;;23.84;51.52
17649;BME280;8943;51.110;-4.158;2022-08-20T09:44:39;101429.81;;;23.99;51.63
17649;BME280;8943;51.110;-4.158;2022-08-20T09:47:08;101408.25;;;24.12;51.38
17649;BME280;8943;51.110;-4.158;2022-08-20T09:49:38;101416.88;;;24.15;51.26
17649;BME280;8943;51.110;-4.158;2022-08-20T09:52:09;101405.44;;;24.20;50.83
17649;BME280;8943;51.110;-4.158;2022-08-20T09:54:38;101406.94;;;24.23;50.76
17649;BME280;8943;51.110;-4.158;2022-08-20T09:57:13;101406.75;;;24.24;49.83
17649;BME280;8943;51.110;-4.158;2022-08-20T09:59:42;101400.38;;;24.17;49.55
17649;BME280;8943;51.110;-4.158;2022-08-20T10:02:11;101400.72;;;24.14;49.86
17649;BME280;8943;51.110;-4.158;2022-08-20T10:04:40;101405.81;;;24.17;50.12
17649;BME280;8943;51.110;-4.158;2022-08-20T10:07:08;101413.22;;;24.23;50.44
17649;BME280;8943;51.110;-4.158;2022-08-20T10:09:36;101418.63;;;24.31;50.25
17649;BME280;8943;51.110;-4.158;2022-08-20T10:12:06;101415.03;;;24.31;50.20
17649;BME280;8943;51.110;-4.158;2022-08-20T10:14:34;101410.44;;;24.31;49.61
17649;BME280;8943;51.110;-4.158;2022-08-20T10:17:02;101404.59;;;24.34;50.00
17649;BME280;8943;51.110;-4.158;2022-08-20T10:19:31;101404.06;;;24.39;49.72
17649;BME280;8943;51.110;-4.158;2022-08-20T10:22:01;101398.47;;;24.40;49.83
17649;BME280;8943;51.110;-4.158;2022-08-20T10:24:29;101410.47;;;24.46;49.88
17649;BME280;8943;51.110;-4.158;2022-08-20T10:27:00;101405.13;;;24.53;49.76
17649;BME280;8943;51.110;-4.158;2022-08-20T10:29:29;101413.78;;;24.56;49.32
17649;BME280;8943;51.110;-4.158;2022-08-20T10:32:08;101407.00;;;24.52;49.57
17649;BME280;8943;51.110;-4.158;2022-08-20T10:34:38;101403.50;;;24.44;49.56
17649;BME280;8943;51.110;-4.158;2022-08-20T10:37:08;101404.19;;;24.46;49.72
17649;BME280;8943;51.110;-4.158;2022-08-20T10:39:36;101406.16;;;24.37;49.31
17649;BME280;8943;51.110;-4.158;2022-08-20T10:42:05;101414.38;;;24.29;49.02
17649;BME280;8943;51.110;-4.158;2022-08-20T10:44:33;101405.16;;;24.30;49.08
17649;BME280;8943;51.110;-4.158;2022-08-20T10:47:13;101407.97;;;24.22;49.58
17649;BME280;8943;51.110;-4.158;2022-08-20T10:49:41;101413.44;;;24.22;49.44
17649;BME280;8943;51.110;-4.158;2022-08-20T10:52:11;101410.88;;;24.20;49.78
17649;BME280;8943;51.110;-4.158;2022-08-20T10:54:39;101407.88;;;24.30;49.36
17649;BME280;8943;51.110;-4.158;2022-08-20T10:57:08;101399.53;;;24.31;49.28
17649;BME280;8943;51.110;-4.158;2022-08-20T10:59:41;101396.09;;;24.37;49.49
17649;BME280;8943;51.110;-4.158;2022-08-20T11:02:10;101406.16;;;24.52;49.53
17649;BME280;8943;51.110;-4.158;2022-08-20T11:04:38;101407.75;;;24.61;49.20
17649;BME280;8943;51.110;-4.158;2022-08-20T11:07:14;101411.69;;;24.58;48.77
17649;BME280;8943;51.110;-4.158;2022-08-20T11:09:43;101408.53;;;24.55;48.54
17649;BME280;8943;51.110;-4.158;2022-08-20T11:12:11;101402.03;;;24.56;48.51
17649;BME280;8943;51.110;-4.158;2022-08-20T11:14:40;101405.97;;;24.53;48.61
17649;BME280;8943;51.110;-4.158;2022-08-20T11:17:08;101406.44;;;24.57;48.32
17649;BME280;8943;51.110;-4.158;2022-08-20T11:19:41;101413.84;;;24.63;48.11
17649;BME280;8943;51.110;-4.158;2022-08-20T11:22:10;101406.16;;;24.66;47.54
17649;BME280;8943;51.110;-4.158;2022-08-20T11:24:39;101418.66;;;24.76;47.50
17649;BME280;8943;51.110;-4.158;2022-08-20T11:27:18;101400.06;;;24.79;46.52
17649;BME280;8943;51.110;-4.158;2022-08-20T11:29:48;101410.66;;;24.74;46.42
17649;BME280;8943;51.110;-4.158;2022-08-20T11:32:16;101415.94;;;24.76;46.62
17649;BME280;8943;51.110;-4.158;2022-08-20T11:34:45;101404.19;;;24.75;46.67
17649;BME280;8943;51.110;-4.158;2022-08-20T11:37:14;101398.59;;;24.83;46.97
17649;BME280;8943;51.110;-4.158;2022-08-20T11:39:44;101410.06;;;24.93;46.41
17649;BME280;8943;51.110;-4.158;2022-08-20T11:42:13;101395.97;;;25.05;45.60
17649;BME280;8943;51.110;-4.158;2022-08-20T11:44:41;101396.13;;;25.18;45.87
17649;BME280;8943;51.110;-4.158;2022-08-20T11:47:19;101400.97;;;25.37;45.56
17649;BME280;8943;51.110;-4.158;2022-08-20T11:49:56;101408.91;;;25.54;44.74
17649;BME280;8943;51.110;-4.158;2022-08-20T11:52:24;101401.19;;;25.57;44.44
17649;BME280;8943;51.110;-4.158;2022-08-20T11:54:56;101394.75;;;25.65;44.21
17649;BME280;8943;51.110;-4.158;2022-08-20T11:57:26;101393.31;;;25.69;44.36
17649;BME280;8943;51.110;-4.158;2022-08-20T11:59:58;101367.31;;;25.73;44.37
17649;BME280;8943;51.110;-4.158;2022-08-20T12:02:27;101403.34;;;25.83;43.73
17649;BME280;8943;51.110;-4.158;2022-08-20T12:04:55;101390.34;;;25.85;43.11
17649;BME280;8943;51.110;-4.158;2022-08-20T12:07:24;101390.16;;;25.87;43.26
17649;BME280;8943;51.110;-4.158;2022-08-20T12:09:52;101403.47;;;25.97;42.95
17649;BME280;8943;51.110;-4.158;2022-08-20T12:12:23;101392.84;;;26.08;43.05
17649;BME280;8943;51.110;-4.158;2022-08-20T12:14:52;101387.50;;;26.28;42.97
17649;BME280;8943;51.110;-4.158;2022-08-20T12:17:23;101390.44;;;26.55;42.49
17649;BME280;8943;51.110;-4.158;2022-08-20T12:19:53;101387.38;;;26.71;42.24
17649;BME280;8943;51.110;-4.158;2022-08-20T12:22:23;101392.09;;;26.90;41.34
17649;BME280;8943;51.110;-4.158;2022-08-20T12:24:51;101387.31;;;27.06;41.05
17649;BME280;8943;51.110;-4.158;2022-08-20T12:27:22;101387.81;;;27.23;41.09
17649;BME280;8943;51.110;-4.158;2022-08-20T12:29:54;101404.03;;;27.37;40.70
17649;BME280;8943;51.110;-4.158;2022-08-20T12:32:24;101395.88;;;27.44;40.61
17649;BME280;8943;51.110;-4.158;2022-08-20T12:34:53;101404.69;;;27.39;39.41
17649;BME280;8943;51.110;-4.158;2022-08-20T12:37:23;101391.00;;;27.39;39.48
17649;BME280;8943;51.110;-4.158;2022-08-20T12:39:55;101377.28;;;27.33;39.55
17649;BME280;8943;51.110;-4.158;2022-08-20T12:42:24;101381.94;;;27.32;39.38
17649;BME280;8943;51.110;-4.158;2022-08-20T12:44:54;101373.53;;;27.34;38.97
17649;BME280;8943;51.110;-4.158;2022-08-20T12:47:24;101371.44;;;27.36;39.27
17649;BME280;8943;51.110;-4.158;2022-08-20T12:49:55;101377.78;;;27.43;38.62
17649;BME280;8943;51.110;-4.158;2022-08-20T12:52:24;101369.56;;;27.50;38.64
17649;BME280;8943;51.110;-4.158;2022-08-20T12:54:53;101371.44;;;27.56;38.29
17649;BME280;8943;51.110;-4.158;2022-08-20T12:57:23;101381.78;;;27.60;37.98
17649;BME280;8943;51.110;-4.158;2022-08-20T12:59:51;101378.63;;;27.63;37.74
17649;BME280;8943;51.110;-4.158;2022-08-20T13:02:21;101382.22;;;27.64;37.78
17649;BME280;8943;51.110;-4.158;2022-08-20T13:04:49;101384.94;;;27.64;37.63
17649;BME280;8943;51.110;-4.158;2022-08-20T13:07:17;101384.91;;;27.57;37.42
17649;BME280;8943;51.110;-4.158;2022-08-20T13:09:46;101370.19;;;27.52;37.29
17649;BME280;8943;51.110;-4.158;2022-08-20T13:12:14;101376.50;;;27.45;37.20